Taunton, Minnesota
Current Conditions -  °F | °C
As of 4:14 PM on Friday 31 Oct 2014 (Local Time) from KCNB Reporting Station
Clear Clear  
Wind Chill: 38°   Ceiling: Unl
Heat Index: 38°   Visibility: 10mi
Dew Point: 20°   Wind: 0mph
Humidity: 49%   Direction: NA
Pressure: 30.49"   Gusts: NA
Location:  44.59°N, 96.07°W
Report Text: KCNB 312114Z AUTO 00000KT 10SM CLR 03/M06 A3049 RMK AO2 T00331064
Loading
Personal Weather Stations






























Interactive Weather Map
Tropical Storm Tracking
New forecast layout! Learn more

10-Day Weather Forecast

Advertisements
Track Severe Weather on mobile